Terminal Aerodrome Forecast
Issued by NWS

Home | Current Version | Previous Version | Text Only | Print | Product List | Glossary On
Versions: 1 2 3 4 5 6 7 8 9 10 11 12 13 14 15 16 17 18 19 20
000
FTUS41 KRNK 271322 AAB
TAFBCB
TAF AMD
KBCB 271322Z 2713/2812 00000KT P6SM SKC
     FM271900 18005KT P6SM VCTS BKN045CB BKN100 BKN250
     FM280000 17004KT P6SM SCT045 BKN100 BKN250
     FM280400 00000KT 5SM BR SCT050 SCT250
      TEMPO 2808/2812 2SM BR=

USA.gov is the U.S. government's official web portal to all federal, state and local government web resources and services.